Time;durP1;ratioP1;P1;durP2;ratioP2;P2;SDS_P1;SDS_P2;PMS_P1;PMS_P2;Temp;Humidity;BMP_temperature;BMP_pressure;BME280_temperature;BME280_humidity;BME280_pressure;Samples;Min_cycle;Max_cycle;Signal;HPM_P1;HPM_P2
2022/12/27 00:02:09;;;;;;;;;;;;;;;;;;5002472;28;20624;-70
2022/12/27 00:04:35;;;;;;;;;;;;;;;;;;4987720;28;19921;-72
2022/12/27 00:07:00;;;;;;;;;;;;;;;;;;4986665;28;19916;-70
2022/12/27 00:09:25;;;;;;;;;;;;;;;;;;4985333;28;19929;-70
2022/12/27 00:11:51;;;;;;;;;;;;;;;;;;5002121;28;20303;-72
2022/12/27 00:14:19;;;;;;;;;;;;;;;;;;5002365;28;20934;-73
2022/12/27 00:16:46;;;;;;;;;;;;;;;;;;5020041;28;19924;-72
2022/12/27 00:19:12;;;;;;;;;;;;;;;;;;5004106;28;20259;-72
2022/12/27 00:21:39;;;;;;;;;;;;;;;;;;4986650;28;19994;-73
2022/12/27 00:24:07;;;;;;;;;;;;;;;;;;4983830;28;20102;-72
2022/12/27 00:26:33;;;;;;;;;;;;;;;;;;5022165;28;19921;-72
2022/12/27 00:28:58;;;;;;;;;;;;;;;;;;4999298;28;19927;-71
2022/12/27 00:31:24;;;;;;;;;;;;;;;;;;5019145;28;19925;-71
2022/12/27 00:33:50;;;;;;;;;;;;;;;;;;5021762;28;20403;-71
2022/12/27 00:36:15;;;;;;;;;;;;;;;;;;5002612;28;19921;-70
2022/12/27 00:38:41;;;;;;;;;;;;;;;;;;4999455;28;19923;-71
2022/12/27 00:41:08;;;;;;;;;;;;;;;;;;4979045;28;19935;-71
2022/12/27 00:43:36;;;;;;;;;;;;;;;;;;5018526;28;20391;-71
2022/12/27 00:46:01;;;;;;;;;;;;;;;;;;5021092;28;19920;-70
2022/12/27 00:48:27;;;;;;;;;;;;;;;;;;5003476;28;20188;-70
2022/12/27 00:50:54;;;;;;;;;;;;;;;;;;5001400;28;20019;-72
2022/12/27 00:53:19;;;;;;;;;;;;;;;;;;5004154;28;19989;-71
2022/12/27 00:55:45;;;;;;;;;;;;;;;;;;5001668;28;19997;-71
2022/12/27 00:58:13;;;;;;;;;;;;;;;;;;5002460;28;19920;-71
2022/12/27 01:00:38;;;;;;;;;;;;;;;;;;4985167;28;19921;-72
2022/12/27 01:03:04;;;;;;;;;;;;;;;;;;4985434;28;19978;-72
2022/12/27 01:05:29;;;;;;;;;;;;;;;;;;5003513;28;20041;-71
2022/12/27 01:07:54;;;;;;;;;;;;;;;;;;5017343;28;19920;-72
2022/12/27 01:10:22;;;;;;;;;;;;;;;;;;4984976;28;19924;-71
2022/12/27 01:12:47;;;;;;;;;;;;;;;;;;5002757;28;19920;-70
2022/12/27 01:15:15;;;;;;;;;;;;;;;;;;4999515;28;20032;-71
2022/12/27 01:17:40;;;;;;;;;;;;;;;;;;4983592;28;21610;-70
2022/12/27 01:20:05;;;;;;;;;;;;;;;;;;5019602;28;20533;-70
2022/12/27 01:22:33;;;;;;;;;;;;;;;;;;5002006;28;20146;-70
2022/12/27 01:24:58;;;;;;;;;;;;;;;;;;5021633;28;20855;-70
2022/12/27 01:27:26;;;;;;;;;;;;;;;;;;5019759;28;20307;-71
2022/12/27 01:29:53;;;;;;;;;;;;;;;;;;5020679;28;19924;-71
2022/12/27 01:32:20;;;;;;;;;;;;;;;;;;5020918;28;19928;-71
2022/12/27 01:34:48;;;;;;;;;;;;;;;;;;4994447;28;20276;-70
2022/12/27 01:37:16;;;;;;;;;;;;;;;;;;4977289;28;19941;-70
2022/12/27 01:43:01;;;;;;;;;;;;;;;;;;4975650;28;20143;-72
2022/12/27 01:45:28;;;;;;;;;;;;;;;;;;4995979;28;20301;-72
2022/12/27 01:47:56;;;;;;;;;;;;;;;;;;4984598;28;19959;-76
2022/12/27 01:53:14;;;;;;;;;;;;;;;;;;4981193;28;19922;-70
2022/12/27 01:55:42;;;;;;;;;;;;;;;;;;4981494;28;19924;-71
2022/12/27 01:58:07;;;;;;;;;;;;;;;;;;4983433;28;19921;-72
2022/12/27 02:00:33;;;;;;;;;;;;;;;;;;4979413;28;20400;-70
2022/12/27 02:03:00;;;;;;;;;;;;;;;;;;4978425;28;19925;-72
2022/12/27 02:05:25;;;;;;;;;;;;;;;;;;4980500;28;19929;-72
2022/12/27 02:07:56;;;;;;;;;;;;;;;;;;4981391;28;21373;-73
2022/12/27 02:10:22;;;;;;;;;;;;;;;;;;4996455;28;20392;-72
2022/12/27 02:12:51;;;;;;;;;;;;;;;;;;4959513;28;21362;-70
2022/12/27 02:15:17;;;;;;;;;;;;;;;;;;4980388;28;20031;-73
2022/12/27 02:17:42;;;;;;;;;;;;;;;;;;4979271;28;19980;-68
2022/12/27 02:20:10;;;;;;;;;;;;;;;;;;4981590;28;19918;-71
2022/12/27 02:24:01;;;;;;;;;;;;;;;;;;4980261;28;19918;-72
2022/12/27 02:25:20;;;;;;;;;;;;;;;;;;4984278;28;19917;-74
2022/12/27 02:27:45;;;;;;;;;;;;;;;;;;4976162;28;19925;-71
2022/12/27 02:30:13;;;;;;;;;;;;;;;;;;4979507;28;19921;-70
2022/12/27 02:32:41;;;;;;;;;;;;;;;;;;4964714;28;19933;-75
2022/12/27 02:35:08;;;;;;;;;;;;;;;;;;4995668;28;19925;-74
2022/12/27 02:37:34;;;;;;;;;;;;;;;;;;5002015;28;20153;-74
2022/12/27 02:53:02;;;;;;;;;;;;;;;;;;4994981;28;20040;-75
2022/12/27 02:53:52;;;;;;;;;;;;;;;;;;4998793;28;19921;-72
2022/12/27 02:59:06;;;;;;;;;;;;;;;;;;4998790;28;20326;-70
2022/12/27 03:04:20;;;;;;;;;;;;;;;;;;4998293;28;19921;-70
2022/12/27 03:06:48;;;;;;;;;;;;;;;;;;4997926;28;19921;-74
2022/12/27 03:15:53;;;;;;;;;;;;;;;;;;4999498;28;19917;-71
2022/12/27 03:17:29;;;;;;;;;;;;;;;;;;5001938;28;19921;-72
2022/12/27 03:25:29;;;;;;;;;;;;;;;;;;5003140;28;20363;-68
2022/12/27 03:33:25;;;;;;;;;;;;;;;;;;5004620;28;19948;-67
2022/12/27 03:38:37;;;;;;;;;;;;;;;;;;5022899;28;20391;-66
2022/12/27 03:43:49;;;;;;;;;;;;;;;;;;5014476;28;19921;-68
2022/12/27 03:46:33;;;;;;;;;;;;;;;;;;5017790;28;19929;-67
2022/12/27 03:48:58;;;;;;;;;;;;;;;;;;5017469;28;19931;-67
2022/12/27 03:51:25;;;;;;;;;;;;;;;;;;5022322;28;20335;-68
2022/12/27 03:53:51;;;;;;;;;;;;;;;;;;5000924;28;19921;-68
2022/12/27 03:56:16;;;;;;;;;;;;;;;;;;5003911;28;20159;-68
2022/12/27 03:58:44;;;;;;;;;;;;;;;;;;5020080;28;19984;-70
2022/12/27 04:01:09;;;;;;;;;;;;;;;;;;4986690;28;19921;-68
2022/12/27 04:03:35;;;;;;;;;;;;;;;;;;4987577;28;19923;-68
2022/12/27 04:06:00;;;;;;;;;;;;;;;;;;5004329;28;20013;-68
2022/12/27 04:35:55;;;;;;;;;;;;;;;;;;5022086;28;21956;-71
2022/12/27 04:38:23;;;;;;;;;;;;;;;;;;5023035;28;19933;-71
2022/12/27 04:55:10;;;;;;;;;;;;;;;;;;5016379;28;19921;-71
2022/12/27 04:57:29;;;;;;;;;;;;;;;;;;4998366;28;19927;-68
2022/12/27 05:02:38;;;;;;;;;;;;;;;;;;5022829;28;19921;-69
2022/12/27 05:05:04;;;;;;;;;;;;;;;;;;4986320;28;19978;-69
2022/12/27 05:15:41;;;;;;;;;;;;;;;;;;5018238;28;19917;-69
2022/12/27 05:18:06;;;;;;;;;;;;;;;;;;4999103;28;19935;-69
2022/12/27 05:20:34;;;;;;;;;;;;;;;;;;5002336;28;20472;-69
2022/12/27 05:25:44;;;;;;;;;;;;;;;;;;5002722;28;19917;-69
2022/12/27 05:28:11;;;;;;;;;;;;;;;;;;5001226;28;19927;-69
2022/12/27 05:30:37;;;;;;;;;;;;;;;;;;5022515;28;19924;-69
2022/12/27 05:33:02;;;;;;;;;;;;;;;;;;5001923;28;20229;-70
2022/12/27 05:35:30;;;;;;;;;;;;;;;;;;5001092;28;19929;-68
2022/12/27 05:37:58;;;;;;;;;;;;;;;;;;5019506;28;19925;-68
2022/12/27 05:40:28;;;;;;;;;;;;;;;;;;5004437;28;19920;-68
2022/12/27 05:42:56;;;;;;;;;;;;;;;;;;5020517;28;19917;-69
2022/12/27 05:45:21;;;;;;;;;;;;;;;;;;5019501;28;19921;-69
2022/12/27 05:47:46;;;;;;;;;;;;;;;;;;5001636;28;19990;-69
2022/12/27 05:50:12;;;;;;;;;;;;;;;;;;5017953;28;19913;-68
2022/12/27 05:52:40;;;;;;;;;;;;;;;;;;5021008;28;20144;-68
2022/12/27 05:55:06;;;;;;;;;;;;;;;;;;5002577;28;20008;-66
2022/12/27 05:57:31;;;;;;;;;;;;;;;;;;5002441;28;20039;-67
2022/12/27 05:59:59;;;;;;;;;;;;;;;;;;5020057;28;19920;-67
2022/12/27 06:02:27;;;;;;;;;;;;;;;;;;4985742;28;19995;-66
2022/12/27 06:04:52;;;;;;;;;;;;;;;;;;5020856;28;20418;-67
2022/12/27 06:07:24;;;;;;;;;;;;;;;;;;4986030;28;19968;-67
2022/12/27 06:09:49;;;;;;;;;;;;;;;;;;5002222;28;20557;-67
2022/12/27 06:12:15;;;;;;;;;;;;;;;;;;5001567;28;19925;-67
2022/12/27 06:14:47;;;;;;;;;;;;;;;;;;5021666;28;20624;-66
2022/12/27 06:17:13;;;;;;;;;;;;;;;;;;5020647;28;19921;-67
2022/12/27 06:19:38;;;;;;;;;;;;;;;;;;5001859;28;19990;-66
2022/12/27 06:22:06;;;;;;;;;;;;;;;;;;4998751;28;20126;-66
2022/12/27 06:24:36;;;;;;;;;;;;;;;;;;5001527;28;20902;-67
2022/12/27 06:27:04;;;;;;;;;;;;;;;;;;4998751;28;19990;-67
2022/12/27 06:29:30;;;;;;;;;;;;;;;;;;5020615;28;19987;-67
2022/12/27 06:31:57;;;;;;;;;;;;;;;;;;5000554;28;19936;-68
2022/12/27 06:34:23;;;;;;;;;;;;;;;;;;4999434;28;20008;-67
2022/12/27 06:36:51;;;;;;;;;;;;;;;;;;5018211;28;20016;-68
2022/12/27 06:39:16;;;;;;;;;;;;;;;;;;5012254;28;20015;-69
2022/12/27 06:41:44;;;;;;;;;;;;;;;;;;5021435;28;19987;-68
2022/12/27 06:44:09;;;;;;;;;;;;;;;;;;4999342;28;19925;-67
2022/12/27 06:46:35;;;;;;;;;;;;;;;;;;5020904;28;20493;-67
2022/12/27 06:49:01;;;;;;;;;;;;;;;;;;5020633;28;20097;-68
2022/12/27 06:51:29;;;;;;;;;;;;;;;;;;5024832;28;19925;-68
2022/12/27 06:53:54;;;;;;;;;;;;;;;;;;4988618;28;20679;-70
2022/12/27 06:56:19;;;;;;;;;;;;;;;;;;4989941;28;19924;-70
2022/12/27 06:58:45;;;;;;;;;;;;;;;;;;5025961;28;19924;-70
2022/12/27 07:01:15;;;;;;;;;;;;;;;;;;4998545;28;20011;-70
2022/12/27 07:03:40;;;;;;;;;;;;;;;;;;5003666;28;19921;-68
2022/12/27 07:06:05;;;;;;;;;;;;;;;;;;5005834;28;19939;-68
2022/12/27 07:08:33;;;;;;;;;;;;;;;;;;5003000;28;19917;-69
2022/12/27 07:11:00;;;;;;;;;;;;;;;;;;5001342;28;20509;-68
2022/12/27 07:13:26;;;;;;;;;;;;;;;;;;5001615;28;19956;-68
2022/12/27 07:16:18;;;;;;;;;;;;;;;;;;4931347;28;19969;-68
2022/12/27 07:18:51;;;;;;;;;;;;;;;;;;4944950;28;19927;-69
2022/12/27 07:21:20;;;;;;;;;;;;;;;;;;4983710;28;20163;-68
2022/12/27 07:23:45;;;;;;;;;;;;;;;;;;5023194;28;20015;-69
2022/12/27 07:26:14;;;;;;;;;;;;;;;;;;5017331;28;20347;-69
2022/12/27 07:28:41;;;;;;;;;;;;;;;;;;4996646;28;19917;-69
2022/12/27 07:31:07;;;;;;;;;;;;;;;;;;5016528;28;20045;-69
2022/12/27 07:33:34;;;;;;;;;;;;;;;;;;5021286;28;20043;-70
2022/12/27 07:36:00;;;;;;;;;;;;;;;;;;5000010;28;19921;-70
2022/12/27 07:38:25;;;;;;;;;;;;;;;;;;5001445;28;19925;-70
2022/12/27 07:40:50;;;;;;;;;;;;;;;;;;4998527;28;20573;-69
2022/12/27 07:43:18;;;;;;;;;;;;;;;;;;5002157;28;19917;-69
2022/12/27 07:45:43;;;;;;;;;;;;;;;;;;5000307;28;19955;-70
2022/12/27 07:48:11;;;;;;;;;;;;;;;;;;4979160;28;20788;-68
2022/12/27 07:50:36;;;;;;;;;;;;;;;;;;4982471;28;19924;-69
2022/12/27 07:53:04;;;;;;;;;;;;;;;;;;4983704;28;19995;-69
2022/12/27 07:55:29;;;;;;;;;;;;;;;;;;4983975;28;20443;-69
2022/12/27 07:57:57;;;;;;;;;;;;;;;;;;5001680;28;19921;-68
2022/12/27 08:00:22;;;;;;;;;;;;;;;;;;5001925;28;19948;-69
2022/12/27 08:02:48;;;;;;;;;;;;;;;;;;4999652;28;19927;-69
2022/12/27 08:05:13;;;;;;;;;;;;;;;;;;4999237;28;19947;-69
2022/12/27 08:07:41;;;;;;;;;;;;;;;;;;5002960;28;19975;-70
2022/12/27 08:10:08;;;;;;;;;;;;;;;;;;5001547;28;21574;-69
2022/12/27 08:12:36;;;;;;;;;;;;;;;;;;4998586;28;19925;-69
2022/12/27 08:15:04;;;;;;;;;;;;;;;;;;5003168;28;19925;-69
2022/12/27 08:17:32;;;;;;;;;;;;;;;;;;5014334;28;20018;-69
2022/12/27 08:19:57;;;;;;;;;;;;;;;;;;5001333;28;19921;-69
2022/12/27 08:22:25;;;;;;;;;;;;;;;;;;4998104;28;19921;-69
2022/12/27 08:24:54;;;;;;;;;;;;;;;;;;4999540;28;19976;-69
2022/12/27 08:27:22;;;;;;;;;;;;;;;;;;4999111;28;19971;-70
2022/12/27 08:29:49;;;;;;;;;;;;;;;;;;5000126;28;21596;-70
2022/12/27 08:32:17;;;;;;;;;;;;;;;;;;4996253;28;19921;-69
2022/12/27 08:34:45;;;;;;;;;;;;;;;;;;4998768;28;19932;-69
2022/12/27 08:37:10;;;;;;;;;;;;;;;;;;4997956;28;19968;-69
2022/12/27 08:39:36;;;;;;;;;;;;;;;;;;5011630;28;20411;-69
2022/12/27 08:42:04;;;;;;;;;;;;;;;;;;4979792;28;19921;-69
2022/12/27 08:44:29;;;;;;;;;;;;;;;;;;4978867;28;19917;-69
2022/12/27 08:46:58;;;;;;;;;;;;;;;;;;4998769;28;20336;-69
2022/12/27 08:49:25;;;;;;;;;;;;;;;;;;4999095;28;19921;-69
2022/12/27 08:51:51;;;;;;;;;;;;;;;;;;5015940;28;20355;-70
2022/12/27 08:54:21;;;;;;;;;;;;;;;;;;4997617;28;19921;-70
2022/12/27 08:56:47;;;;;;;;;;;;;;;;;;5000130;28;19921;-70
2022/12/27 08:59:15;;;;;;;;;;;;;;;;;;4998842;28;20187;-70
2022/12/27 09:01:41;;;;;;;;;;;;;;;;;;5001220;28;19935;-70
2022/12/27 09:04:06;;;;;;;;;;;;;;;;;;4999199;28;20418;-68
2022/12/27 09:06:32;;;;;;;;;;;;;;;;;;5002642;28;20289;-69
2022/12/27 09:08:58;;;;;;;;;;;;;;;;;;5000880;28;19921;-69
2022/12/27 09:11:23;;;;;;;;;;;;;;;;;;5000227;28;19929;-70
2022/12/27 09:13:52;;;;;;;;;;;;;;;;;;5002864;28;20347;-69
2022/12/27 09:16:20;;;;;;;;;;;;;;;;;;4999726;28;20071;-69
2022/12/27 09:18:48;;;;;;;;;;;;;;;;;;4978939;28;19916;-69
2022/12/27 09:21:15;;;;;;;;;;;;;;;;;;4981266;28;20012;-69
2022/12/27 09:23:41;;;;;;;;;;;;;;;;;;4981709;28;19925;-69
2022/12/27 09:26:08;;;;;;;;;;;;;;;;;;4999824;28;20313;-69
2022/12/27 09:28:34;;;;;;;;;;;;;;;;;;4996366;28;20209;-68
2022/12/27 09:31:01;;;;;;;;;;;;;;;;;;5000338;28;19917;-69
2022/12/27 09:33:29;;;;;;;;;;;;;;;;;;4983274;28;19917;-69
2022/12/27 09:35:57;;;;;;;;;;;;;;;;;;5006371;28;19970;-69
2022/12/27 09:38:25;;;;;;;;;;;;;;;;;;5004209;28;19921;-69
2022/12/27 09:40:53;;;;;;;;;;;;;;;;;;4985773;28;19998;-69
2022/12/27 09:43:18;;;;;;;;;;;;;;;;;;5000109;28;20482;-69
2022/12/27 09:45:46;;;;;;;;;;;;;;;;;;5000744;28;19920;-69
2022/12/27 09:48:11;;;;;;;;;;;;;;;;;;5020024;28;19921;-70
2022/12/27 09:50:38;;;;;;;;;;;;;;;;;;4999395;28;21368;-70
2022/12/27 09:53:04;;;;;;;;;;;;;;;;;;4999702;28;20260;-70
2022/12/27 09:55:31;;;;;;;;;;;;;;;;;;5018990;28;19925;-69
2022/12/27 09:57:57;;;;;;;;;;;;;;;;;;4998619;28;19925;-70
2022/12/27 10:00:25;;;;;;;;;;;;;;;;;;4982242;28;19924;-68
2022/12/27 10:02:50;;;;;;;;;;;;;;;;;;5017677;28;19973;-69
2022/12/27 10:05:16;;;;;;;;;;;;;;;;;;4999555;28;20043;-68
2022/12/27 10:07:41;;;;;;;;;;;;;;;;;;4996172;28;19935;-69
2022/12/27 10:10:09;;;;;;;;;;;;;;;;;;5000750;28;19920;-69
2022/12/27 10:12:35;;;;;;;;;;;;;;;;;;5017037;28;19932;-69
2022/12/27 10:15:12;;;;;;;;;;;;;;;;;;4985034;28;19940;-69
2022/12/27 10:17:39;;;;;;;;;;;;;;;;;;4981315;28;19921;-69
2022/12/27 10:20:07;;;;;;;;;;;;;;;;;;5019675;28;19927;-67
2022/12/27 10:22:47;;;;;;;;;;;;;;;;;;;;;
2022/12/27 10:25:45;;;;;;;;;;;;;;;;;;5017618;28;19928;-68
2022/12/27 10:28:11;;;;;;;;;;;;;;;;;;4999715;28;19935;-68
2022/12/27 10:30:38;;;;;;;;;;;;;;;;;;4993920;28;21533;-69
2022/12/27 10:33:04;;;;;;;;;;;;;;;;;;5017751;28;21543;-70
2022/12/27 10:35:34;;;;;;;;;;;;;;;;;;4999676;28;19928;-68
2022/12/27 10:38:00;;;;;;;;;;;;;;;;;;5000945;28;20104;-70
2022/12/27 10:40:27;;;;;;;;;;;;;;;;;;4984972;28;19923;-69
2022/12/27 10:42:53;;;;;;;;;;;;;;;;;;4994278;28;19921;-68
2022/12/27 10:45:21;;;;;;;;;;;;;;;;;;4989918;28;19917;-69
2022/12/27 10:47:46;;;;;;;;;;;;;;;;;;5011902;28;20022;-70
2022/12/27 10:50:14;;;;;;;;;;;;;;;;;;4990287;28;19995;-69
2022/12/27 10:52:39;;;;;;;;;;;;;;;;;;4993845;28;19925;-67
2022/12/27 10:55:07;;;;;;;;;;;;;;;;;;4978479;28;21458;-67
2022/12/27 10:57:32;;;;;;;;;;;;;;;;;;5009302;28;19952;-68
2022/12/27 10:59:57;;;;;;;;;;;;;;;;;;5013581;28;19917;-69
2022/12/27 11:02:23;;;;;;;;;;;;;;;;;;4975151;28;20358;-70
2022/12/27 11:04:48;;;;;;;;;;;;;;;;;;5011364;28;19967;-70
2022/12/27 11:07:16;;;;;;;;;;;;;;;;;;5018661;28;19963;-70
2022/12/27 11:09:42;;;;;;;;;;;;;;;;;;4998530;28;20449;-68
2022/12/27 11:12:13;;;;;;;;;;;;;;;;;;5000259;28;19925;-68
2022/12/27 11:14:41;;;;;;;;;;;;;;;;;;4999729;28;20047;-69
2022/12/27 11:17:07;;;;;;;;;;;;;;;;;;5014196;28;19917;-69
2022/12/27 11:19:34;;;;;;;;;;;;;;;;;;5014231;28;19920;-67
2022/12/27 11:21:59;;;;;;;;;;;;;;;;;;5018254;28;19930;-68
2022/12/27 11:24:25;;;;;;;;;;;;;;;;;;5000043;28;19921;-67
2022/12/27 11:26:53;;;;;;;;;;;;;;;;;;4998774;28;19942;-68
2022/12/27 11:29:20;;;;;;;;;;;;;;;;;;5013927;28;19916;-66
2022/12/27 11:31:47;;;;;;;;;;;;;;;;;;4993495;28;19927;-67
2022/12/27 11:34:12;;;;;;;;;;;;;;;;;;4979231;28;20378;-69
2022/12/27 11:36:39;;;;;;;;;;;;;;;;;;4983556;28;21359;-67
2022/12/27 11:39:10;;;;;;;;;;;;;;;;;;5020614;28;20120;-67
2022/12/27 11:41:36;;;;;;;;;;;;;;;;;;4998995;28;20647;-67
2022/12/27 11:44:01;;;;;;;;;;;;;;;;;;5003449;28;19925;-67
2022/12/27 11:46:29;;;;;;;;;;;;;;;;;;5013993;28;20637;-67
2022/12/27 11:48:57;;;;;;;;;;;;;;;;;;4982419;28;19959;-67
2022/12/27 11:51:22;;;;;;;;;;;;;;;;;;5000590;28;19947;-67
2022/12/27 11:53:50;;;;;;;;;;;;;;;;;;5021129;28;19951;-68
2022/12/27 11:56:19;;;;;;;;;;;;;;;;;;5023007;28;19921;-67
2022/12/27 11:58:44;;;;;;;;;;;;;;;;;;5002819;28;20304;-68
2022/12/27 12:01:12;;;;;;;;;;;;;;;;;;5001738;28;19974;-68
2022/12/27 12:03:43;;;;;;;;;;;;;;;;;;5001538;28;20000;-67
2022/12/27 12:06:13;;;;;;;;;;;;;;;;;;4996872;28;19963;-66
2022/12/27 12:08:41;;;;;;;;;;;;;;;;;;4997782;28;20219;-66
2022/12/27 12:11:08;;;;;;;;;;;;;;;;;;4984284;28;19966;-66
2022/12/27 12:13:34;;;;;;;;;;;;;;;;;;4997685;28;19932;-66
2022/12/27 12:15:59;;;;;;;;;;;;;;;;;;4995703;28;20122;-66
2022/12/27 12:18:25;;;;;;;;;;;;;;;;;;5001872;28;20835;-67
2022/12/27 12:20:53;;;;;;;;;;;;;;;;;;4982515;28;19931;-66
2022/12/27 12:23:18;;;;;;;;;;;;;;;;;;5022579;28;21407;-67
2022/12/27 12:25:43;;;;;;;;;;;;;;;;;;4996372;28;19999;-67
2022/12/27 12:28:09;;;;;;;;;;;;;;;;;;4997613;28;20066;-67
2022/12/27 12:30:36;;;;;;;;;;;;;;;;;;5018798;28;19921;-67
2022/12/27 12:33:04;;;;;;;;;;;;;;;;;;4999447;28;19935;-67
2022/12/27 12:35:31;;;;;;;;;;;;;;;;;;5018303;28;20352;-68
2022/12/27 12:37:56;;;;;;;;;;;;;;;;;;4999334;28;19951;-67
2022/12/27 12:40:21;;;;;;;;;;;;;;;;;;4985819;28;19928;-65
2022/12/27 12:42:47;;;;;;;;;;;;;;;;;;5020422;28;20073;-66
2022/12/27 12:45:15;;;;;;;;;;;;;;;;;;5001746;28;19921;-65
2022/12/27 12:47:40;;;;;;;;;;;;;;;;;;5002145;28;19986;-67
2022/12/27 12:50:06;;;;;;;;;;;;;;;;;;5021032;28;20011;-68
2022/12/27 12:52:34;;;;;;;;;;;;;;;;;;4985844;28;19971;-67
2022/12/27 12:55:01;;;;;;;;;;;;;;;;;;5003527;28;20359;-67
2022/12/27 12:57:29;;;;;;;;;;;;;;;;;;5003045;28;19920;-66
2022/12/27 12:59:54;;;;;;;;;;;;;;;;;;5000281;28;19924;-67
2022/12/27 13:02:20;;;;;;;;;;;;;;;;;;4997678;28;20096;-68
2022/12/27 13:04:45;;;;;;;;;;;;;;;;;;4996082;28;20276;-67
2022/12/27 13:07:10;;;;;;;;;;;;;;;;;;4997344;28;19986;-67
2022/12/27 13:09:36;;;;;;;;;;;;;;;;;;5000520;28;19989;-68
2022/12/27 13:12:01;;;;;;;;;;;;;;;;;;4999236;28;19966;-67
2022/12/27 13:14:31;;;;;;;;;;;;;;;;;;5001840;28;19917;-68
2022/12/27 13:16:57;;;;;;;;;;;;;;;;;;4996038;28;19946;-67
2022/12/27 13:19:22;;;;;;;;;;;;;;;;;;4985035;28;20533;-67
2022/12/27 13:21:47;;;;;;;;;;;;;;;;;;5017378;28;19920;-67
2022/12/27 13:24:13;;;;;;;;;;;;;;;;;;4980295;28;19928;-68
2022/12/27 13:26:38;;;;;;;;;;;;;;;;;;4999661;28;20303;-67
2022/12/27 13:29:04;;;;;;;;;;;;;;;;;;5017757;28;20186;-67
2022/12/27 13:31:31;;;;;;;;;;;;;;;;;;4986549;28;19935;-68
2022/12/27 13:33:57;;;;;;;;;;;;;;;;;;5018110;28;19920;-67
2022/12/27 13:36:22;;;;;;;;;;;;;;;;;;4999093;28;19964;-68
2022/12/27 13:38:47;;;;;;;;;;;;;;;;;;4980135;28;19927;-68
2022/12/27 13:41:15;;;;;;;;;;;;;;;;;;5017801;28;19921;-69
2022/12/27 13:43:40;;;;;;;;;;;;;;;;;;5002828;28;19924;-69
2022/12/27 13:46:05;;;;;;;;;;;;;;;;;;5001741;28;20268;-69
2022/12/27 13:48:31;;;;;;;;;;;;;;;;;;4977082;28;19927;-69
2022/12/27 13:50:56;;;;;;;;;;;;;;;;;;5017260;28;19955;-69
2022/12/27 13:53:23;;;;;;;;;;;;;;;;;;4983924;28;19963;-68
2022/12/27 13:55:49;;;;;;;;;;;;;;;;;;4996520;28;20156;-67
2022/12/27 13:58:17;;;;;;;;;;;;;;;;;;4982487;28;19917;-68
2022/12/27 14:00:43;;;;;;;;;;;;;;;;;;5000135;28;20006;-70
2022/12/27 14:03:08;;;;;;;;;;;;;;;;;;5001134;28;20050;-69
2022/12/27 14:05:34;;;;;;;;;;;;;;;;;;5000112;28;21686;-69
2022/12/27 14:08:00;;;;;;;;;;;;;;;;;;5001941;28;19967;-69
2022/12/27 14:10:25;;;;;;;;;;;;;;;;;;4984520;28;19924;-68
2022/12/27 14:12:53;;;;;;;;;;;;;;;;;;4998412;28;21700;-68
2022/12/27 14:15:19;;;;;;;;;;;;;;;;;;5014512;28;19917;-68
2022/12/27 14:17:44;;;;;;;;;;;;;;;;;;5018788;28;19920;-70
2022/12/27 14:20:10;;;;;;;;;;;;;;;;;;4984291;28;20501;-69
2022/12/27 14:22:35;;;;;;;;;;;;;;;;;;5018890;28;19925;-69
2022/12/27 14:25:01;;;;;;;;;;;;;;;;;;4996971;28;19921;-70
2022/12/27 14:27:26;;;;;;;;;;;;;;;;;;5019860;28;19974;-69
2022/12/27 14:29:51;;;;;;;;;;;;;;;;;;5015685;28;19916;-70
2022/12/27 14:32:17;;;;;;;;;;;;;;;;;;4993945;28;19928;-69
2022/12/27 14:34:42;;;;;;;;;;;;;;;;;;4998745;28;19923;-69
2022/12/27 14:37:12;;;;;;;;;;;;;;;;;;4997591;28;19925;-70
2022/12/27 14:39:38;;;;;;;;;;;;;;;;;;5018368;28;19970;-69
2022/12/27 14:42:06;;;;;;;;;;;;;;;;;;4980682;28;20288;-67
2022/12/27 14:44:31;;;;;;;;;;;;;;;;;;4993646;28;20469;-68
2022/12/27 14:46:59;;;;;;;;;;;;;;;;;;4993963;28;19927;-70
2022/12/27 14:49:25;;;;;;;;;;;;;;;;;;4996550;28;20427;-70
2022/12/27 14:51:50;;;;;;;;;;;;;;;;;;5013264;28;21367;-70
2022/12/27 14:54:19;;;;;;;;;;;;;;;;;;4990066;28;20303;-70
2022/12/27 14:56:47;;;;;;;;;;;;;;;;;;4998083;28;20229;-70
2022/12/27 14:59:17;;;;;;;;;;;;;;;;;;4994498;28;19917;-69
2022/12/27 15:01:43;;;;;;;;;;;;;;;;;;5012155;28;19922;-69
2022/12/27 15:04:10;;;;;;;;;;;;;;;;;;5016685;28;19921;-69
2022/12/27 15:06:36;;;;;;;;;;;;;;;;;;5018443;28;20019;-69
2022/12/27 15:09:01;;;;;;;;;;;;;;;;;;5016903;28;20917;-69
2022/12/27 15:11:26;;;;;;;;;;;;;;;;;;4997237;28;20047;-69
2022/12/27 15:13:52;;;;;;;;;;;;;;;;;;5020689;28;20444;-69
2022/12/27 15:16:18;;;;;;;;;;;;;;;;;;5019577;28;19987;-69
2022/12/27 15:18:43;;;;;;;;;;;;;;;;;;4988737;28;20403;-69
2022/12/27 15:21:08;;;;;;;;;;;;;;;;;;4994127;28;19924;-69
2022/12/27 15:23:39;;;;;;;;;;;;;;;;;;4997272;28;20446;-71
2022/12/27 15:26:04;;;;;;;;;;;;;;;;;;5018125;28;19921;-70
2022/12/27 15:28:30;;;;;;;;;;;;;;;;;;5018907;28;19916;-71
2022/12/27 15:30:58;;;;;;;;;;;;;;;;;;4998936;28;19921;-70
2022/12/27 15:33:23;;;;;;;;;;;;;;;;;;5003445;28;20325;-70
2022/12/27 15:35:49;;;;;;;;;;;;;;;;;;4999341;28;19935;-70
2022/12/27 15:38:17;;;;;;;;;;;;;;;;;;4980876;28;20432;-68
2022/12/27 15:40:42;;;;;;;;;;;;;;;;;;5003270;28;20190;-70
2022/12/27 15:43:08;;;;;;;;;;;;;;;;;;5000517;28;19983;-71
2022/12/27 15:45:35;;;;;;;;;;;;;;;;;;4984119;28;20043;-70
2022/12/27 15:48:03;;;;;;;;;;;;;;;;;;5020881;28;20267;-70
2022/12/27 15:50:28;;;;;;;;;;;;;;;;;;5017321;28;20019;-70
2022/12/27 15:52:54;;;;;;;;;;;;;;;;;;4997840;28;19921;-70
2022/12/27 15:55:20;;;;;;;;;;;;;;;;;;4995579;28;19920;-69
2022/12/27 15:57:45;;;;;;;;;;;;;;;;;;4995401;28;19939;-70
2022/12/27 16:00:13;;;;;;;;;;;;;;;;;;4999536;28;19940;-70
2022/12/27 16:02:38;;;;;;;;;;;;;;;;;;4979984;28;20412;-70
2022/12/27 16:05:04;;;;;;;;;;;;;;;;;;5000546;28;20249;-70
2022/12/27 16:07:35;;;;;;;;;;;;;;;;;;4994258;28;19925;-69
2022/12/27 16:10:05;;;;;;;;;;;;;;;;;;4993141;28;19925;-70
2022/12/27 16:12:31;;;;;;;;;;;;;;;;;;5003992;28;20015;-69
2022/12/27 16:14:56;;;;;;;;;;;;;;;;;;5013556;28;20566;-71
2022/12/27 16:17:21;;;;;;;;;;;;;;;;;;5018771;28;20016;-69
2022/12/27 16:19:46;;;;;;;;;;;;;;;;;;5002269;28;19916;-69
2022/12/27 16:22:12;;;;;;;;;;;;;;;;;;5020461;28;19920;-70
2022/12/27 16:27:54;;;;;;;;;;;;;;;;;;5022889;28;19928;-69
2022/12/27 16:30:19;;;;;;;;;;;;;;;;;;4999082;28;20102;-69
2022/12/27 16:32:44;;;;;;;;;;;;;;;;;;4981312;28;19962;-70
2022/12/27 16:35:14;;;;;;;;;;;;;;;;;;4983399;28;20227;-70
2022/12/27 16:37:40;;;;;;;;;;;;;;;;;;5002167;28;19929;-70
2022/12/27 16:40:06;;;;;;;;;;;;;;;;;;4985971;28;19923;-69
2022/12/27 16:42:33;;;;;;;;;;;;;;;;;;4981901;28;21407;-69
2022/12/27 16:45:01;;;;;;;;;;;;;;;;;;5020032;28;20441;-70
2022/12/27 16:47:27;;;;;;;;;;;;;;;;;;4999606;28;19916;-69
2022/12/27 16:49:54;;;;;;;;;;;;;;;;;;4984061;28;20212;-70
2022/12/27 16:52:22;;;;;;;;;;;;;;;;;;5014830;28;19924;-70
2022/12/27 16:54:48;;;;;;;;;;;;;;;;;;5016577;28;20189;-69
2022/12/27 16:57:13;;;;;;;;;;;;;;;;;;5003859;28;19928;-70
2022/12/27 16:59:39;;;;;;;;;;;;;;;;;;4985899;28;19982;-70
2022/12/27 17:02:06;;;;;;;;;;;;;;;;;;5021894;28;19920;-70
2022/12/27 17:04:35;;;;;;;;;;;;;;;;;;5021165;28;20458;-70
2022/12/27 17:07:01;;;;;;;;;;;;;;;;;;5003544;28;20004;-70
2022/12/27 17:09:28;;;;;;;;;;;;;;;;;;5003154;28;20871;-70
2022/12/27 17:11:54;;;;;;;;;;;;;;;;;;5002946;28;19928;-70
2022/12/27 17:14:19;;;;;;;;;;;;;;;;;;5000106;28;21015;-71
2022/12/27 17:16:44;;;;;;;;;;;;;;;;;;5000917;28;19956;-71
2022/12/27 17:19:10;;;;;;;;;;;;;;;;;;4999110;28;20303;-69
2022/12/27 17:21:35;;;;;;;;;;;;;;;;;;5016891;28;20018;-69
2022/12/27 17:24:01;;;;;;;;;;;;;;;;;;5001379;28;21390;-70
2022/12/27 17:26:29;;;;;;;;;;;;;;;;;;5002048;28;19947;-69
2022/12/27 17:28:54;;;;;;;;;;;;;;;;;;5000524;28;19963;-69
2022/12/27 17:31:19;;;;;;;;;;;;;;;;;;4999772;28;19979;-70
2022/12/27 17:33:45;;;;;;;;;;;;;;;;;;5015741;28;20537;-69
2022/12/27 17:36:11;;;;;;;;;;;;;;;;;;5018703;28;19983;-69
2022/12/27 17:38:39;;;;;;;;;;;;;;;;;;5016116;28;19925;-69
2022/12/27 17:41:04;;;;;;;;;;;;;;;;;;4998096;28;20276;-69
2022/12/27 17:46:16;;;;;;;;;;;;;;;;;;5015414;28;20271;-70
2022/12/27 17:48:42;;;;;;;;;;;;;;;;;;4998425;28;19920;-71
2022/12/27 17:51:07;;;;;;;;;;;;;;;;;;5018785;28;19928;-70
2022/12/27 17:59:05;;;;;;;;;;;;;;;;;;4998032;28;20617;-70
2022/12/27 18:01:31;;;;;;;;;;;;;;;;;;4995901;28;19974;-70
2022/12/27 18:03:58;;;;;;;;;;;;;;;;;;4991980;28;19930;-70
2022/12/27 18:06:24;;;;;;;;;;;;;;;;;;4998386;28;19927;-71
2022/12/27 18:08:52;;;;;;;;;;;;;;;;;;4997595;28;19968;-70
2022/12/27 18:11:22;;;;;;;;;;;;;;;;;;4983737;28;19917;-70
2022/12/27 18:13:52;;;;;;;;;;;;;;;;;;4985183;28;20364;-70
2022/12/27 18:16:18;;;;;;;;;;;;;;;;;;5014638;28;20557;-71
2022/12/27 18:18:44;;;;;;;;;;;;;;;;;;5015398;28;19920;-70
2022/12/27 18:21:10;;;;;;;;;;;;;;;;;;4983809;28;19936;-69
2022/12/27 18:23:38;;;;;;;;;;;;;;;;;;5022734;28;19921;-70
2022/12/27 18:26:03;;;;;;;;;;;;;;;;;;5000513;28;19947;-69
2022/12/27 18:28:29;;;;;;;;;;;;;;;;;;4984237;28;19916;-70
2022/12/27 18:30:54;;;;;;;;;;;;;;;;;;4998273;28;19921;-70
2022/12/27 18:33:19;;;;;;;;;;;;;;;;;;4999157;28;20398;-70
2022/12/27 18:35:48;;;;;;;;;;;;;;;;;;5014382;28;19920;-71